Ajo, AZ (85321)

3:06 PM MST on July 30, 2016 (GMT -0700)
KAZAJO2 | | Change Station

Elev 1739 ft 32.38 °N, 112.86 °W | Updated 1 minute ago

Clear
Clear
95.6 °F
Feels Like 99 °F
N
7.0
Wind Variable Wind from SSW
Gusts 11.0 mph

Today
High -- | Low -- °F
--% Chance of Precip.
Yesterday
High -- | Low -- °F
Precip. -- in
Pressure 29.76 in
Visibility 8.0 miles
Clouds Clear
Heat Index 99 °F
Dew Point 66 °F
Humidity 38%
Rainfall 0.02 in
Snow Depth Not available.
5:45 AM 7:30 PM
Waning Crescent, 10% visible
METAR KGXF 302158Z AUTO VRB06KT 8SM CLR 36/17 A2980 RMK AO2 SLP078 T03620165
Pressure 29.76 in
Visibility 8.0 miles
Clouds Clear
Heat Index 99 °F
Dew Point 66 °F
Humidity 38%
Rainfall 0.02 in
Snow Depth Not available.
5:45 AM 7:30 PM
Waning Crescent, 10% visible
METAR KGXF 302158Z AUTO VRB06KT 8SM CLR 36/17 A2980 RMK AO2 SLP078 T03620165

10-Day Weather Forecast

Almanac

Astronomy

Jul. 30, 2016 Rise Set
Actual Time
Civil Twilight
Nautical Twilight
Astronomical Twilight
Moon
Length of Visible Light
Length of Day
Tomorrow will be .
, % of the Moon is Illuminated

Today's Extremes

State Highs State Lows

Community

WunderPhotos

Upload Photos

1,928,659 photos uploaded!

WunderBlog® & News

Nearby

Air Quality

  Air Quality AQ Index Pollutant
Not available.

Snow Depth

Station Depth Elevation

Earthquake Activity

City Distance Mag. Time & Date
Minimum magnitude displayed is 2.5.

Coastal Water Temperatures

Place Temperature

Stations

Nearby Weather Stations

Station Location Temp. Windchill Dew Point Humidity Wind Precip. Elev Updated Type
                   

Watches & Warnings

There are currently no watches in effect.